sensor_id;sensor_type;location;lat;lon;timestamp;P1;durP1;ratioP1;P2;durP2;ratioP2
33858;SDS011;20156;47.486;12.074;2023-04-01T00:01:29;6.37;;;5.73;;
33858;SDS011;20156;47.486;12.074;2023-04-01T00:03:54;7.30;;;6.50;;
33858;SDS011;20156;47.486;12.074;2023-04-01T00:06:21;6.10;;;5.47;;
33858;SDS011;20156;47.486;12.074;2023-04-01T00:08:46;6.27;;;5.43;;
33858;SDS011;20156;47.486;12.074;2023-04-01T00:11:12;7.50;;;5.60;;
33858;SDS011;20156;47.486;12.074;2023-04-01T00:13:38;7.00;;;6.30;;
33858;SDS011;20156;47.486;12.074;2023-04-01T00:16:03;6.83;;;6.23;;
33858;SDS011;20156;47.486;12.074;2023-04-01T00:18:29;7.97;;;7.17;;
33858;SDS011;20156;47.486;12.074;2023-04-01T00:20:55;6.70;;;6.00;;
33858;SDS011;20156;47.486;12.074;2023-04-01T00:23:20;10.47;;;7.10;;
33858;SDS011;20156;47.486;12.074;2023-04-01T00:25:47;7.87;;;7.00;;
33858;SDS011;20156;47.486;12.074;2023-04-01T00:28:15;7.93;;;6.70;;
33858;SDS011;20156;47.486;12.074;2023-04-01T00:30:41;10.57;;;8.87;;
33858;SDS011;20156;47.486;12.074;2023-04-01T00:33:07;13.93;;;8.70;;
33858;SDS011;20156;47.486;12.074;2023-04-01T00:35:33;8.43;;;7.53;;
33858;SDS011;20156;47.486;12.074;2023-04-01T00:37:58;9.07;;;7.70;;
33858;SDS011;20156;47.486;12.074;2023-04-01T00:40:26;8.57;;;7.50;;
33858;SDS011;20156;47.486;12.074;2023-04-01T00:42:54;11.70;;;9.03;;
33858;SDS011;20156;47.486;12.074;2023-04-01T00:45:37;12.33;;;9.20;;
33858;SDS011;20156;47.486;12.074;2023-04-01T00:48:15;11.07;;;8.20;;
33858;SDS011;20156;47.486;12.074;2023-04-01T00:50:44;11.17;;;7.70;;
33858;SDS011;20156;47.486;12.074;2023-04-01T00:53:13;11.67;;;8.03;;
33858;SDS011;20156;47.486;12.074;2023-04-01T00:55:41;11.50;;;8.20;;
33858;SDS011;20156;47.486;12.074;2023-04-01T00:58:14;10.43;;;7.93;;
33858;SDS011;20156;47.486;12.074;2023-04-01T01:00:43;12.63;;;8.00;;
33858;SDS011;20156;47.486;12.074;2023-04-01T01:03:13;10.70;;;8.10;;
33858;SDS011;20156;47.486;12.074;2023-04-01T01:05:52;9.33;;;7.90;;
33858;SDS011;20156;47.486;12.074;2023-04-01T01:11:40;7.03;;;5.27;;
33858;SDS011;20156;47.486;12.074;2023-04-01T01:14:12;8.23;;;5.20;;
33858;SDS011;20156;47.486;12.074;2023-04-01T01:17:19;5.67;;;4.67;;
33858;SDS011;20156;47.486;12.074;2023-04-01T01:22:32;6.90;;;5.47;;
33858;SDS011;20156;47.486;12.074;2023-04-01T01:27:32;11.07;;;5.33;;
33858;SDS011;20156;47.486;12.074;2023-04-01T01:33:06;8.00;;;6.80;;
33858;SDS011;20156;47.486;12.074;2023-04-01T01:35:57;6.77;;;6.07;;
33858;SDS011;20156;47.486;12.074;2023-04-01T01:38:27;7.67;;;5.50;;
33858;SDS011;20156;47.486;12.074;2023-04-01T01:40:57;8.03;;;6.20;;
33858;SDS011;20156;47.486;12.074;2023-04-01T01:43:26;7.10;;;5.50;;
33858;SDS011;20156;47.486;12.074;2023-04-01T01:46:00;6.60;;;5.90;;
33858;SDS011;20156;47.486;12.074;2023-04-01T01:48:31;6.10;;;5.50;;
33858;SDS011;20156;47.486;12.074;2023-04-01T01:51:00;6.47;;;5.77;;
33858;SDS011;20156;47.486;12.074;2023-04-01T01:53:26;7.10;;;6.17;;
33858;SDS011;20156;47.486;12.074;2023-04-01T01:55:51;7.57;;;6.17;;
33858;SDS011;20156;47.486;12.074;2023-04-01T02:00:55;8.73;;;6.00;;
33858;SDS011;20156;47.486;12.074;2023-04-01T02:03:27;7.70;;;6.10;;
33858;SDS011;20156;47.486;12.074;2023-04-01T02:05:58;8.07;;;6.80;;
33858;SDS011;20156;47.486;12.074;2023-04-01T02:08:36;8.47;;;7.00;;
33858;SDS011;20156;47.486;12.074;2023-04-01T02:11:10;8.50;;;5.57;;
33858;SDS011;20156;47.486;12.074;2023-04-01T02:16:19;8.27;;;5.97;;
33858;SDS011;20156;47.486;12.074;2023-04-01T02:18:49;6.67;;;5.97;;
33858;SDS011;20156;47.486;12.074;2023-04-01T02:21:18;6.27;;;5.47;;
33858;SDS011;20156;47.486;12.074;2023-04-01T02:23:46;5.87;;;5.00;;
33858;SDS011;20156;47.486;12.074;2023-04-01T02:26:12;4.23;;;3.83;;
33858;SDS011;20156;47.486;12.074;2023-04-01T02:28:39;5.47;;;4.97;;
33858;SDS011;20156;47.486;12.074;2023-04-01T02:31:07;5.40;;;4.40;;
33858;SDS011;20156;47.486;12.074;2023-04-01T02:33:35;5.90;;;5.13;;
33858;SDS011;20156;47.486;12.074;2023-04-01T02:36:04;7.10;;;5.80;;
33858;SDS011;20156;47.486;12.074;2023-04-01T02:38:30;7.00;;;5.77;;
33858;SDS011;20156;47.486;12.074;2023-04-01T02:40:57;8.10;;;6.17;;
33858;SDS011;20156;47.486;12.074;2023-04-01T02:43:25;9.20;;;5.83;;
33858;SDS011;20156;47.486;12.074;2023-04-01T02:45:51;7.90;;;6.53;;
33858;SDS011;20156;47.486;12.074;2023-04-01T02:48:16;9.10;;;7.20;;
33858;SDS011;20156;47.486;12.074;2023-04-01T02:50:42;12.40;;;9.10;;
33858;SDS011;20156;47.486;12.074;2023-04-01T02:53:07;9.47;;;7.90;;
33858;SDS011;20156;47.486;12.074;2023-04-01T02:55:33;10.47;;;7.57;;
33858;SDS011;20156;47.486;12.074;2023-04-01T02:57:59;9.53;;;7.50;;
33858;SDS011;20156;47.486;12.074;2023-04-01T03:00:24;8.10;;;6.97;;
33858;SDS011;20156;47.486;12.074;2023-04-01T03:02:51;7.50;;;6.80;;
33858;SDS011;20156;47.486;12.074;2023-04-01T03:05:17;7.50;;;6.77;;
33858;SDS011;20156;47.486;12.074;2023-04-01T03:07:43;7.37;;;6.60;;
33858;SDS011;20156;47.486;12.074;2023-04-01T03:10:09;8.10;;;7.23;;
33858;SDS011;20156;47.486;12.074;2023-04-01T03:12:35;9.10;;;7.03;;
33858;SDS011;20156;47.486;12.074;2023-04-01T03:15:00;10.13;;;7.07;;
33858;SDS011;20156;47.486;12.074;2023-04-01T03:17:26;8.50;;;7.57;;
33858;SDS011;20156;47.486;12.074;2023-04-01T03:19:51;8.40;;;7.20;;
33858;SDS011;20156;47.486;12.074;2023-04-01T03:22:17;8.00;;;6.60;;
33858;SDS011;20156;47.486;12.074;2023-04-01T03:24:45;8.30;;;6.97;;
33858;SDS011;20156;47.486;12.074;2023-04-01T03:27:14;8.27;;;7.00;;
33858;SDS011;20156;47.486;12.074;2023-04-01T03:29:40;7.50;;;6.80;;
33858;SDS011;20156;47.486;12.074;2023-04-01T03:32:05;9.80;;;8.00;;
33858;SDS011;20156;47.486;12.074;2023-04-01T03:34:31;9.67;;;8.50;;
33858;SDS011;20156;47.486;12.074;2023-04-01T03:36:57;13.03;;;9.50;;
33858;SDS011;20156;47.486;12.074;2023-04-01T03:39:23;10.83;;;9.27;;
33858;SDS011;20156;47.486;12.074;2023-04-01T03:41:48;13.47;;;10.30;;
33858;SDS011;20156;47.486;12.074;2023-04-01T03:44:14;10.40;;;9.00;;
33858;SDS011;20156;47.486;12.074;2023-04-01T03:46:39;10.40;;;9.40;;
33858;SDS011;20156;47.486;12.074;2023-04-01T03:49:09;11.10;;;9.77;;
33858;SDS011;20156;47.486;12.074;2023-04-01T03:51:42;11.53;;;10.33;;
33858;SDS011;20156;47.486;12.074;2023-04-01T03:54:08;11.60;;;9.93;;
33858;SDS011;20156;47.486;12.074;2023-04-01T03:56:34;11.33;;;10.00;;
33858;SDS011;20156;47.486;12.074;2023-04-01T03:59:01;10.90;;;9.30;;
33858;SDS011;20156;47.486;12.074;2023-04-01T04:01:28;10.53;;;9.23;;
33858;SDS011;20156;47.486;12.074;2023-04-01T04:03:54;11.67;;;9.73;;
33858;SDS011;20156;47.486;12.074;2023-04-01T04:06:21;11.63;;;10.43;;
33858;SDS011;20156;47.486;12.074;2023-04-01T04:08:47;11.53;;;10.40;;
33858;SDS011;20156;47.486;12.074;2023-04-01T04:11:13;11.40;;;9.87;;
33858;SDS011;20156;47.486;12.074;2023-04-01T04:13:38;10.40;;;9.40;;
33858;SDS011;20156;47.486;12.074;2023-04-01T04:16:04;11.00;;;9.90;;
33858;SDS011;20156;47.486;12.074;2023-04-01T04:18:30;10.30;;;8.87;;
33858;SDS011;20156;47.486;12.074;2023-04-01T04:20:55;10.40;;;9.03;;
33858;SDS011;20156;47.486;12.074;2023-04-01T04:23:21;9.90;;;8.83;;
33858;SDS011;20156;47.486;12.074;2023-04-01T04:25:53;13.10;;;10.47;;
33858;SDS011;20156;47.486;12.074;2023-04-01T04:28:23;10.83;;;9.73;;
33858;SDS011;20156;47.486;12.074;2023-04-01T04:30:50;13.40;;;9.30;;
33858;SDS011;20156;47.486;12.074;2023-04-01T04:33:15;11.57;;;9.00;;
33858;SDS011;20156;47.486;12.074;2023-04-01T04:35:41;12.47;;;10.27;;
33858;SDS011;20156;47.486;12.074;2023-04-01T04:38:07;9.80;;;8.67;;
33858;SDS011;20156;47.486;12.074;2023-04-01T04:40:32;11.73;;;10.03;;
33858;SDS011;20156;47.486;12.074;2023-04-01T04:42:58;11.33;;;10.13;;
33858;SDS011;20156;47.486;12.074;2023-04-01T04:45:23;10.97;;;9.87;;
33858;SDS011;20156;47.486;12.074;2023-04-01T04:47:48;14.20;;;10.87;;
33858;SDS011;20156;47.486;12.074;2023-04-01T04:50:14;12.17;;;11.07;;
33858;SDS011;20156;47.486;12.074;2023-04-01T04:52:39;15.17;;;11.10;;
33858;SDS011;20156;47.486;12.074;2023-04-01T04:55:05;12.53;;;10.73;;
33858;SDS011;20156;47.486;12.074;2023-04-01T04:57:31;12.43;;;10.57;;
33858;SDS011;20156;47.486;12.074;2023-04-01T04:59:56;11.90;;;10.70;;
33858;SDS011;20156;47.486;12.074;2023-04-01T05:02:21;11.20;;;10.00;;
33858;SDS011;20156;47.486;12.074;2023-04-01T05:04:47;13.60;;;10.63;;
33858;SDS011;20156;47.486;12.074;2023-04-01T05:07:12;12.07;;;10.53;;
33858;SDS011;20156;47.486;12.074;2023-04-01T05:09:38;14.87;;;12.43;;
33858;SDS011;20156;47.486;12.074;2023-04-01T05:12:03;17.87;;;13.97;;
33858;SDS011;20156;47.486;12.074;2023-04-01T05:14:29;16.50;;;14.77;;
33858;SDS011;20156;47.486;12.074;2023-04-01T05:16:54;16.73;;;13.63;;
33858;SDS011;20156;47.486;12.074;2023-04-01T05:19:20;15.53;;;13.77;;
33858;SDS011;20156;47.486;12.074;2023-04-01T05:21:45;16.87;;;14.93;;
33858;SDS011;20156;47.486;12.074;2023-04-01T05:24:11;16.97;;;13.63;;
33858;SDS011;20156;47.486;12.074;2023-04-01T05:26:36;16.90;;;13.73;;
33858;SDS011;20156;47.486;12.074;2023-04-01T05:29:03;16.73;;;14.90;;
33858;SDS011;20156;47.486;12.074;2023-04-01T05:31:29;15.67;;;14.03;;
33858;SDS011;20156;47.486;12.074;2023-04-01T05:33:55;14.13;;;12.70;;
33858;SDS011;20156;47.486;12.074;2023-04-01T05:36:20;18.17;;;14.03;;
33858;SDS011;20156;47.486;12.074;2023-04-01T05:38:46;15.57;;;12.70;;
33858;SDS011;20156;47.486;12.074;2023-04-01T05:41:12;16.43;;;12.33;;
33858;SDS011;20156;47.486;12.074;2023-04-01T05:43:38;14.07;;;12.27;;
33858;SDS011;20156;47.486;12.074;2023-04-01T05:46:04;14.70;;;10.80;;
33858;SDS011;20156;47.486;12.074;2023-04-01T05:48:30;12.67;;;11.20;;
33858;SDS011;20156;47.486;12.074;2023-04-01T05:50:55;14.17;;;12.60;;
33858;SDS011;20156;47.486;12.074;2023-04-01T05:53:21;17.13;;;14.53;;
33858;SDS011;20156;47.486;12.074;2023-04-01T05:55:47;17.23;;;14.73;;
33858;SDS011;20156;47.486;12.074;2023-04-01T05:58:13;18.67;;;16.67;;
33858;SDS011;20156;47.486;12.074;2023-04-01T06:00:38;20.07;;;17.10;;
33858;SDS011;20156;47.486;12.074;2023-04-01T06:03:04;21.53;;;17.70;;
33858;SDS011;20156;47.486;12.074;2023-04-01T06:05:30;24.20;;;20.77;;
33858;SDS011;20156;47.486;12.074;2023-04-01T06:08:10;22.93;;;19.07;;
33858;SDS011;20156;47.486;12.074;2023-04-01T06:10:48;24.93;;;19.20;;
33858;SDS011;20156;47.486;12.074;2023-04-01T06:13:41;25.80;;;20.13;;
33858;SDS011;20156;47.486;12.074;2023-04-01T06:21:48;30.70;;;24.00;;
33858;SDS011;20156;47.486;12.074;2023-04-01T06:33:09;18.07;;;16.20;;
33858;SDS011;20156;47.486;12.074;2023-04-01T06:38:34;15.83;;;14.00;;
33858;SDS011;20156;47.486;12.074;2023-04-01T06:43:58;11.97;;;9.40;;
33858;SDS011;20156;47.486;12.074;2023-04-01T06:51:59;10.47;;;9.47;;
33858;SDS011;20156;47.486;12.074;2023-04-01T06:54:43;10.67;;;9.53;;
33858;SDS011;20156;47.486;12.074;2023-04-01T06:57:23;9.73;;;8.73;;
33858;SDS011;20156;47.486;12.074;2023-04-01T06:59:59;11.47;;;10.37;;
33858;SDS011;20156;47.486;12.074;2023-04-01T07:05:02;10.87;;;9.83;;
33858;SDS011;20156;47.486;12.074;2023-04-01T07:07:34;10.80;;;9.00;;
33858;SDS011;20156;47.486;12.074;2023-04-01T07:10:05;9.32;;;8.32;;
33858;SDS011;20156;47.486;12.074;2023-04-01T07:12:43;11.65;;;9.63;;
33858;SDS011;20156;47.486;12.074;2023-04-01T07:15:20;13.10;;;11.13;;
33858;SDS011;20156;47.486;12.074;2023-04-01T07:17:54;19.90;;;17.90;;
33858;SDS011;20156;47.486;12.074;2023-04-01T07:20:29;13.00;;;11.80;;
33858;SDS011;20156;47.486;12.074;2023-04-01T07:22:57;9.80;;;8.83;;
33858;SDS011;20156;47.486;12.074;2023-04-01T07:25:27;9.25;;;8.35;;
33858;SDS011;20156;47.486;12.074;2023-04-01T07:28:11;10.85;;;9.00;;
33858;SDS011;20156;47.486;12.074;2023-04-01T07:30:50;8.38;;;7.15;;
33858;SDS011;20156;47.486;12.074;2023-04-01T07:36:24;9.52;;;8.63;;
33858;SDS011;20156;47.486;12.074;2023-04-01T07:39:21;9.95;;;8.98;;
33858;SDS011;20156;47.486;12.074;2023-04-01T07:42:07;8.57;;;7.75;;
33858;SDS011;20156;47.486;12.074;2023-04-01T07:52:49;7.82;;;6.95;;
33858;SDS011;20156;47.486;12.074;2023-04-01T07:56:05;8.05;;;7.25;;
33858;SDS011;20156;47.486;12.074;2023-04-01T08:09:38;7.03;;;6.18;;
33858;SDS011;20156;47.486;12.074;2023-04-01T08:20:37;6.82;;;6.15;;
33858;SDS011;20156;47.486;12.074;2023-04-01T08:23:27;9.02;;;5.93;;
33858;SDS011;20156;47.486;12.074;2023-04-01T08:31:09;12.90;;;10.00;;
33858;SDS011;20156;47.486;12.074;2023-04-01T08:33:39;6.13;;;3.60;;
33858;SDS011;20156;47.486;12.074;2023-04-01T08:39:02;3.95;;;2.60;;
33858;SDS011;20156;47.486;12.074;2023-04-01T08:44:24;6.38;;;4.93;;
33858;SDS011;20156;47.486;12.074;2023-04-01T08:52:58;5.28;;;4.65;;
33858;SDS011;20156;47.486;12.074;2023-04-01T08:55:36;4.70;;;4.30;;
33858;SDS011;20156;47.486;12.074;2023-04-01T09:16:19;3.90;;;3.60;;
33858;SDS011;20156;47.486;12.074;2023-04-01T09:24:20;3.47;;;3.17;;
33858;SDS011;20156;47.486;12.074;2023-04-01T09:27:14;9.88;;;7.13;;
33858;SDS011;20156;47.486;12.074;2023-04-01T09:35:38;11.95;;;8.60;;
33858;SDS011;20156;47.486;12.074;2023-04-01T09:49:07;2.67;;;2.13;;
33858;SDS011;20156;47.486;12.074;2023-04-01T09:51:48;2.70;;;2.28;;
33858;SDS011;20156;47.486;12.074;2023-04-01T10:28:53;96.75;;;31.33;;
33858;SDS011;20156;47.486;12.074;2023-04-01T10:37:56;1.85;;;1.50;;
33858;SDS011;20156;47.486;12.074;2023-04-01T10:40:38;3.42;;;2.72;;
33858;SDS011;20156;47.486;12.074;2023-04-01T10:54:43;2.45;;;2.10;;
33858;SDS011;20156;47.486;12.074;2023-04-01T10:57:29;2.60;;;2.08;;
33858;SDS011;20156;47.486;12.074;2023-04-01T11:16:47;5.25;;;4.40;;
33858;SDS011;20156;47.486;12.074;2023-04-01T11:33:33;12.35;;;9.95;;
33858;SDS011;20156;47.486;12.074;2023-04-01T11:35:59;17.55;;;11.15;;
33858;SDS011;20156;47.486;12.074;2023-04-01T11:38:37;48.40;;;30.30;;
33858;SDS011;20156;47.486;12.074;2023-04-01T11:44:24;5.43;;;3.22;;
33858;SDS011;20156;47.486;12.074;2023-04-01T12:06:48;3.45;;;1.40;;
33858;SDS011;20156;47.486;12.074;2023-04-01T12:10:05;1.85;;;1.42;;
33858;SDS011;20156;47.486;12.074;2023-04-01T12:29:12;1.40;;;1.20;;
33858;SDS011;20156;47.486;12.074;2023-04-01T12:43:01;1.67;;;1.15;;
33858;SDS011;20156;47.486;12.074;2023-04-01T12:45:48;1.15;;;1.05;;
33858;SDS011;20156;47.486;12.074;2023-04-01T13:09:55;1.45;;;0.93;;
33858;SDS011;20156;47.486;12.074;2023-04-01T13:23:05;1.23;;;1.10;;
33858;SDS011;20156;47.486;12.074;2023-04-01T13:28:14;0.63;;;0.63;;
33858;SDS011;20156;47.486;12.074;2023-04-01T13:31:06;0.47;;;0.47;;
33858;SDS011;20156;47.486;12.074;2023-04-01T13:55:37;0.88;;;0.45;;
33858;SDS011;20156;47.486;12.074;2023-04-01T14:06:37;1.85;;;1.70;;
33858;SDS011;20156;47.486;12.074;2023-04-01T14:12:00;0.60;;;0.60;;
33858;SDS011;20156;47.486;12.074;2023-04-01T14:14:47;1.65;;;1.55;;
33858;SDS011;20156;47.486;12.074;2023-04-01T14:17:38;0.68;;;0.68;;
33858;SDS011;20156;47.486;12.074;2023-04-01T14:22:51;0.63;;;0.63;;
33858;SDS011;20156;47.486;12.074;2023-04-01T14:50:09;1.40;;;1.30;;
33858;SDS011;20156;47.486;12.074;2023-04-01T15:11:56;0.30;;;0.30;;
33858;SDS011;20156;47.486;12.074;2023-04-01T15:14:43;0.60;;;0.50;;
33858;SDS011;20156;47.486;12.074;2023-04-01T15:20:10;1.35;;;0.30;;
33858;SDS011;20156;47.486;12.074;2023-04-01T15:22:58;0.40;;;0.40;;
33858;SDS011;20156;47.486;12.074;2023-04-01T15:36:33;1.13;;;1.10;;
33858;SDS011;20156;47.486;12.074;2023-04-01T15:44:33;0.50;;;0.50;;
33858;SDS011;20156;47.486;12.074;2023-04-01T16:00:09;0.95;;;0.90;;
33858;SDS011;20156;47.486;12.074;2023-04-01T16:11:41;0.88;;;0.88;;
33858;SDS011;20156;47.486;12.074;2023-04-01T16:14:26;1.55;;;0.77;;
33858;SDS011;20156;47.486;12.074;2023-04-01T16:17:21;0.90;;;0.90;;
33858;SDS011;20156;47.486;12.074;2023-04-01T16:25:39;0.50;;;0.50;;
33858;SDS011;20156;47.486;12.074;2023-04-01T16:33:55;0.40;;;0.40;;
33858;SDS011;20156;47.486;12.074;2023-04-01T16:36:34;2.63;;;1.38;;
33858;SDS011;20156;47.486;12.074;2023-04-01T16:39:41;2.55;;;0.90;;
33858;SDS011;20156;47.486;12.074;2023-04-01T16:44:31;2.20;;;1.65;;
33858;SDS011;20156;47.486;12.074;2023-04-01T16:47:17;1.85;;;0.70;;
33858;SDS011;20156;47.486;12.074;2023-04-01T16:49:51;1.02;;;0.85;;
33858;SDS011;20156;47.486;12.074;2023-04-01T16:52:31;1.83;;;1.52;;
33858;SDS011;20156;47.486;12.074;2023-04-01T16:55:16;1.52;;;1.40;;
33858;SDS011;20156;47.486;12.074;2023-04-01T16:57:48;1.50;;;1.23;;
33858;SDS011;20156;47.486;12.074;2023-04-01T17:02:57;0.60;;;0.60;;
33858;SDS011;20156;47.486;12.074;2023-04-01T17:06:12;0.80;;;0.80;;
33858;SDS011;20156;47.486;12.074;2023-04-01T17:11:10;0.70;;;0.57;;
33858;SDS011;20156;47.486;12.074;2023-04-01T17:30:35;1.13;;;1.02;;
33858;SDS011;20156;47.486;12.074;2023-04-01T17:53:34;5.80;;;2.00;;
33858;SDS011;20156;47.486;12.074;2023-04-01T18:04:53;4.32;;;2.85;;
33858;SDS011;20156;47.486;12.074;2023-04-01T18:07:35;3.45;;;2.35;;
33858;SDS011;20156;47.486;12.074;2023-04-01T18:10:40;3.05;;;1.52;;
33858;SDS011;20156;47.486;12.074;2023-04-01T18:13:30;1.27;;;1.10;;
33858;SDS011;20156;47.486;12.074;2023-04-01T18:19:23;1.63;;;0.70;;
33858;SDS011;20156;47.486;12.074;2023-04-01T18:22:08;0.95;;;0.93;;
33858;SDS011;20156;47.486;12.074;2023-04-01T18:24:44;0.98;;;0.98;;
33858;SDS011;20156;47.486;12.074;2023-04-01T18:30:49;1.20;;;0.98;;
33858;SDS011;20156;47.486;12.074;2023-04-01T18:33:00;1.33;;;0.90;;
33858;SDS011;20156;47.486;12.074;2023-04-01T18:38:30;0.70;;;0.70;;
33858;SDS011;20156;47.486;12.074;2023-04-01T18:50:36;0.77;;;0.60;;
33858;SDS011;20156;47.486;12.074;2023-04-01T18:53:09;1.52;;;0.88;;
33858;SDS011;20156;47.486;12.074;2023-04-01T18:55:51;1.60;;;1.50;;
33858;SDS011;20156;47.486;12.074;2023-04-01T18:58:25;2.15;;;1.60;;
33858;SDS011;20156;47.486;12.074;2023-04-01T19:01:12;9.38;;;7.32;;
33858;SDS011;20156;47.486;12.074;2023-04-01T19:09:15;10.90;;;6.70;;
33858;SDS011;20156;47.486;12.074;2023-04-01T19:17:16;3.55;;;2.70;;
33858;SDS011;20156;47.486;12.074;2023-04-01T19:22:21;5.18;;;3.15;;
33858;SDS011;20156;47.486;12.074;2023-04-01T19:24:52;1.98;;;1.55;;
33858;SDS011;20156;47.486;12.074;2023-04-01T19:27:41;4.32;;;3.38;;
33858;SDS011;20156;47.486;12.074;2023-04-01T19:38:37;3.80;;;3.10;;
33858;SDS011;20156;47.486;12.074;2023-04-01T19:44:41;13.00;;;9.40;;
33858;SDS011;20156;47.486;12.074;2023-04-01T19:47:47;28.58;;;21.10;;
33858;SDS011;20156;47.486;12.074;2023-04-01T19:53:17;12.68;;;10.43;;
33858;SDS011;20156;47.486;12.074;2023-04-01T19:56:01;4.60;;;3.90;;
33858;SDS011;20156;47.486;12.074;2023-04-01T20:01:08;3.75;;;3.30;;
33858;SDS011;20156;47.486;12.074;2023-04-01T20:03:50;4.25;;;3.58;;
33858;SDS011;20156;47.486;12.074;2023-04-01T20:06:35;2.92;;;2.40;;
33858;SDS011;20156;47.486;12.074;2023-04-01T20:12:04;2.92;;;1.98;;
33858;SDS011;20156;47.486;12.074;2023-04-01T20:14:48;2.28;;;2.00;;
33858;SDS011;20156;47.486;12.074;2023-04-01T20:25:01;5.53;;;2.92;;
33858;SDS011;20156;47.486;12.074;2023-04-01T20:27:39;4.10;;;2.50;;
33858;SDS011;20156;47.486;12.074;2023-04-01T20:30:18;3.20;;;2.33;;
33858;SDS011;20156;47.486;12.074;2023-04-01T20:44:50;5.60;;;3.40;;
33858;SDS011;20156;47.486;12.074;2023-04-01T20:49:50;4.78;;;2.40;;
33858;SDS011;20156;47.486;12.074;2023-04-01T21:07:46;2.40;;;1.98;;
33858;SDS011;20156;47.486;12.074;2023-04-01T21:10:45;2.10;;;1.90;;
33858;SDS011;20156;47.486;12.074;2023-04-01T21:13:03;2.07;;;1.43;;
33858;SDS011;20156;47.486;12.074;2023-04-01T21:21:27;1.40;;;1.30;;
33858;SDS011;20156;47.486;12.074;2023-04-01T21:32:55;3.27;;;2.20;;
33858;SDS011;20156;47.486;12.074;2023-04-01T21:44:51;3.58;;;2.67;;
33858;SDS011;20156;47.486;12.074;2023-04-01T21:47:03;5.63;;;3.93;;
33858;SDS011;20156;47.486;12.074;2023-04-01T21:52:58;1.53;;;1.43;;
33858;SDS011;20156;47.486;12.074;2023-04-01T22:07:19;21.57;;;13.13;;
33858;SDS011;20156;47.486;12.074;2023-04-01T22:10:03;58.23;;;27.50;;
33858;SDS011;20156;47.486;12.074;2023-04-01T22:13:23;138.77;;;60.03;;
33858;SDS011;20156;47.486;12.074;2023-04-01T22:15:48;116.23;;;52.13;;
33858;SDS011;20156;47.486;12.074;2023-04-01T22:18:29;53.67;;;25.43;;
33858;SDS011;20156;47.486;12.074;2023-04-01T22:26:26;6.90;;;4.40;;
33858;SDS011;20156;47.486;12.074;2023-04-01T22:29:07;8.23;;;4.70;;
33858;SDS011;20156;47.486;12.074;2023-04-01T22:31:53;4.57;;;2.30;;
33858;SDS011;20156;47.486;12.074;2023-04-01T22:37:18;2.23;;;1.67;;
33858;SDS011;20156;47.486;12.074;2023-04-01T22:55:44;1.87;;;1.70;;
33858;SDS011;20156;47.486;12.074;2023-04-01T22:58:14;3.57;;;1.90;;
33858;SDS011;20156;47.486;12.074;2023-04-01T23:00:54;1.40;;;1.30;;
33858;SDS011;20156;47.486;12.074;2023-04-01T23:03:33;3.87;;;1.30;;
33858;SDS011;20156;47.486;12.074;2023-04-01T23:06:04;2.13;;;1.53;;
33858;SDS011;20156;47.486;12.074;2023-04-01T23:11:08;3.35;;;1.98;;
33858;SDS011;20156;47.486;12.074;2023-04-01T23:13:51;4.10;;;2.17;;
33858;SDS011;20156;47.486;12.074;2023-04-01T23:16:43;4.97;;;2.60;;
33858;SDS011;20156;47.486;12.074;2023-04-01T23:19:41;5.93;;;3.40;;
33858;SDS011;20156;47.486;12.074;2023-04-01T23:27:58;2.37;;;2.10;;
33858;SDS011;20156;47.486;12.074;2023-04-01T23:35:51;2.80;;;1.10;;
33858;SDS011;20156;47.486;12.074;2023-04-01T23:38:20;1.10;;;1.00;;
33858;SDS011;20156;47.486;12.074;2023-04-01T23:40:49;0.90;;;0.77;;
33858;SDS011;20156;47.486;12.074;2023-04-01T23:43:27;0.90;;;0.80;;
33858;SDS011;20156;47.486;12.074;2023-04-01T23:45:56;0.70;;;0.70;;
33858;SDS011;20156;47.486;12.074;2023-04-01T23:48:33;4.10;;;1.00;;
33858;SDS011;20156;47.486;12.074;2023-04-01T23:51:00;1.77;;;1.40;;
33858;SDS011;20156;47.486;12.074;2023-04-01T23:53:29;4.03;;;1.53;;
33858;SDS011;20156;47.486;12.074;2023-04-01T23:55:57;2.23;;;1.53;;
33858;SDS011;20156;47.486;12.074;2023-04-01T23:58:43;2.00;;;1.47;;
